Time;durP1;ratioP1;P1;durP2;ratioP2;P2;SDS_P1;SDS_P2;PMS_P1;PMS_P2;Temp;Humidity;BMP_temperature;BMP_pressure;BME280_temperature;BME280_humidity;BME280_pressure;Samples;Min_cycle;Max_cycle;Signal;HPM_P1;HPM_P2
2022/08/06 00:01:08;;;;;;;5.27;4.60;;;22.80;70.20;;;23.42;51.73;94790.78;5018460;28;20799;-61
2022/08/06 00:03:35;;;;;;;5.50;4.43;;;22.80;70.70;;;23.41;51.77;94787.28;5016093;28;20461;-58
2022/08/06 00:06:03;;;;;;;5.07;4.67;;;22.80;70.80;;;23.40;51.53;94787.50;5016545;28;20459;-61
2022/08/06 00:08:30;;;;;;;5.93;5.37;;;22.80;71.10;;;23.37;51.42;94791.44;5019244;28;20993;-59
2022/08/06 00:10:57;;;;;;;4.77;4.10;;;22.80;70.90;;;23.33;51.32;94789.44;5017250;28;20512;-60
2022/08/06 00:13:24;;;;;;;5.17;4.87;;;22.70;70.10;;;23.29;51.26;94791.75;5017078;28;20468;-61
2022/08/06 00:15:54;;;;;;;4.80;4.40;;;22.70;70.00;;;23.25;51.37;94796.75;5014222;28;20488;-58
2022/08/06 00:18:21;;;;;;;4.77;4.37;;;22.70;70.60;;;23.23;51.61;94793.44;5018856;28;20452;-59
2022/08/06 00:20:48;;;;;;;5.90;5.00;;;22.60;70.80;;;23.19;51.46;94794.94;5020451;28;20449;-58
2022/08/06 00:23:15;;;;;;;7.10;4.47;;;22.60;71.00;;;23.17;51.74;94798.88;5015703;28;20464;-62
2022/08/06 00:25:42;;;;;;;6.13;4.60;;;22.60;71.00;;;23.13;51.92;94800.34;5021892;28;20515;-57
2022/08/06 00:28:10;;;;;;;5.00;4.60;;;22.60;71.20;;;23.11;51.67;94805.94;5017312;28;21082;-61
2022/08/06 00:30:37;;;;;;;4.70;4.30;;;22.50;71.50;;;23.09;52.42;94799.97;5019777;28;20564;-58
2022/08/06 00:33:05;;;;;;;7.10;4.93;;;22.50;71.80;;;23.09;51.97;94799.97;5017062;28;20792;-60
2022/08/06 00:35:33;;;;;;;4.67;4.30;;;22.50;71.90;;;23.08;52.02;94800.97;5017874;28;20607;-60
2022/08/06 00:38:00;;;;;;;5.80;4.07;;;22.50;72.20;;;23.07;52.01;94802.84;5017194;28;21017;-61
2022/08/06 00:40:29;;;;;;;12.60;5.77;;;22.50;71.90;;;23.04;51.69;94808.66;5020473;28;20530;-58
2022/08/06 00:42:56;;;;;;;9.33;5.57;;;22.50;71.50;;;23.00;51.87;94818.16;5017771;28;20509;-58
2022/08/06 00:45:24;;;;;;;4.50;4.20;;;22.50;71.50;;;22.95;52.18;94815.31;5016230;28;20520;-57
2022/08/06 00:47:51;;;;;;;4.60;4.20;;;22.40;71.40;;;22.91;51.75;94808.75;5020698;28;20924;-60
2022/08/06 00:50:20;;;;;;;5.90;5.40;;;22.40;71.40;;;22.89;51.53;94810.81;5018610;28;20462;-60
2022/08/06 00:52:47;;;;;;;7.63;4.50;;;22.30;71.70;;;22.87;52.03;94812.91;5016894;28;20485;-61
2022/08/06 00:55:14;;;;;;;5.10;4.73;;;22.30;72.10;;;22.85;52.44;94812.28;5021954;28;20919;-58
2022/08/06 00:57:41;;;;;;;4.93;4.60;;;22.30;72.40;;;22.84;52.71;94811.47;5021493;28;21000;-60
2022/08/06 01:00:10;;;;;;;5.47;4.97;;;22.30;73.10;;;22.85;52.65;94812.28;5023319;28;20462;-59
2022/08/06 01:02:37;;;;;;;4.73;4.33;;;22.30;73.10;;;22.85;52.87;94810.44;5026394;28;20912;-61
2022/08/06 01:05:05;;;;;;;5.47;5.07;;;22.30;73.40;;;22.85;52.88;94812.28;5021159;28;20460;-58
2022/08/06 01:07:33;;;;;;;4.67;4.37;;;22.30;73.20;;;22.84;52.28;94813.34;5019206;28;20571;-58
2022/08/06 01:10:00;;;;;;;6.10;4.90;;;22.30;73.20;;;22.81;53.17;94814.59;5021159;28;20507;-59
2022/08/06 01:12:28;;;;;;;8.67;5.30;;;22.20;73.40;;;22.81;52.64;94805.75;5020564;28;20499;-59
2022/08/06 01:14:55;;;;;;;5.10;4.57;;;22.20;73.70;;;22.79;53.14;94810.47;5021372;28;20534;-57
2022/08/06 01:17:27;;;;;;;7.37;4.90;;;22.20;73.80;;;22.78;52.71;94809.66;5022781;28;20480;-60
2022/08/06 01:19:59;;;;;;;7.53;5.37;;;22.20;74.20;;;22.77;53.05;94805.34;5018843;28;20972;-58
2022/08/06 01:22:44;;;;;;;7.40;4.90;;;22.20;74.40;;;22.78;53.34;94806.19;5020049;28;21001;-60
2022/08/06 01:25:46;;;;;;;7.97;5.50;;;22.20;74.70;;;22.78;53.78;94806.19;5019697;28;20457;-60
2022/08/06 01:28:17;;;;;;;8.00;5.60;;;22.20;74.90;;;22.79;53.02;94805.97;5000260;28;20973;-59
2022/08/06 01:30:50;;;;;;;9.90;6.40;;;22.20;74.70;;;22.78;53.47;94806.19;5021130;28;20539;-57
2022/08/06 01:33:21;;;;;;;41.80;7.20;;;22.20;74.80;;;22.79;53.33;94807.81;5023709;28;20543;-60
2022/08/06 01:35:52;;;;;;;11.60;5.20;;;22.20;75.00;;;22.77;53.03;94797.28;5025017;28;20971;-59
2022/08/06 01:38:23;;;;;;;5.40;4.90;;;22.20;75.10;;;22.76;53.20;94798.34;5020561;28;20472;-57
2022/08/06 01:40:51;;;;;;;5.23;4.77;;;22.20;74.90;;;22.77;53.30;94802.66;5019489;28;20453;-57
2022/08/06 01:43:21;;;;;;;5.47;4.90;;;22.20;74.80;;;22.74;53.31;94795.88;5019773;28;20461;-59
2022/08/06 01:45:49;;;;;;;6.67;5.87;;;22.20;74.70;;;22.73;52.96;94807.63;5019994;28;20461;-59
2022/08/06 01:48:19;;;;;;;5.57;5.00;;;22.10;74.40;;;22.72;52.64;94799.81;5025065;28;20987;-59
2022/08/06 01:50:49;;;;;;;6.20;4.23;;;22.20;74.40;;;22.68;52.54;94801.28;5019949;28;20453;-60
2022/08/06 01:53:18;;;;;;;5.10;4.67;;;22.10;74.30;;;22.65;52.66;94805.22;5021835;28;20458;-59
2022/08/06 01:55:47;;;;;;;5.70;5.20;;;22.10;74.30;;;22.63;52.98;94804.59;5020419;28;20488;-61
2022/08/06 01:58:15;;;;;;;7.40;4.27;;;22.10;74.30;;;22.59;52.69;94798.06;5018653;28;20538;-59
2022/08/06 02:00:46;;;;;;;5.87;4.93;;;22.00;74.30;;;22.56;52.83;94793.94;5021587;28;20472;-59
2022/08/06 02:03:17;;;;;;;5.27;4.87;;;22.00;74.30;;;22.51;53.15;94785.72;5022031;28;20465;-59
2022/08/06 02:05:44;;;;;;;12.40;6.00;;;22.00;74.40;;;22.47;52.83;94779.16;5020353;28;20452;-59
2022/08/06 02:08:14;;;;;;;5.33;4.93;;;21.90;74.50;;;22.42;52.79;94786.19;5022019;28;20466;-61
2022/08/06 02:10:41;;;;;;;5.50;5.10;;;21.90;74.40;;;22.37;52.89;94784.19;5017907;28;20527;-62
2022/08/06 02:13:08;;;;;;;5.93;4.90;;;21.80;74.40;;;22.32;53.08;94776.78;5017789;28;20478;-58
2022/08/06 02:15:35;;;;;;;6.10;4.83;;;21.80;75.10;;;22.30;53.14;94778.00;5018543;28;20496;-58
2022/08/06 02:18:05;;;;;;;6.10;5.50;;;21.80;75.20;;;22.28;53.16;94775.53;5018222;28;20482;-57
2022/08/06 02:20:35;;;;;;;5.53;5.10;;;21.70;75.10;;;22.24;53.19;94782.34;5022672;28;20429;-58
2022/08/06 02:23:03;;;;;;;5.53;5.13;;;21.70;75.10;;;22.20;53.37;94781.97;5023681;28;20846;-60
2022/08/06 02:25:30;;;;;;;4.87;4.47;;;21.60;75.00;;;22.17;53.56;94778.91;5020143;28;20936;-58
2022/08/06 02:27:58;;;;;;;5.80;5.27;;;21.70;75.40;;;22.14;53.82;94785.50;5021723;28;20538;-59
2022/08/06 02:30:26;;;;;;;12.23;5.00;;;21.60;75.80;;;22.13;53.79;94780.34;5018894;28;20771;-59
2022/08/06 02:32:53;;;;;;;9.20;4.53;;;21.60;76.10;;;22.12;53.64;94773.34;5019447;28;20530;-58
2022/08/06 02:35:22;;;;;;;7.50;5.00;;;21.60;76.40;;;22.12;53.88;94778.69;5022443;28;20646;-60
2022/08/06 02:37:52;;;;;;;7.47;5.50;;;21.60;76.50;;;22.10;53.68;94780.78;5023231;28;20778;-59
2022/08/06 02:40:28;;;;;;;5.63;5.10;;;21.60;76.60;;;22.07;53.83;94776.66;5022299;28;20452;-58
2022/08/06 02:43:00;;;;;;;13.83;5.50;;;21.50;76.50;;;22.06;53.84;94774.19;5022675;28;20530;-60
2022/08/06 02:45:33;;;;;;;7.17;5.70;;;21.50;76.60;;;22.01;53.87;94772.16;5019512;28;20449;-59
2022/08/06 02:48:04;;;;;;;7.27;5.30;;;21.50;76.50;;;21.97;54.01;94781.69;5016434;28;20496;-60
2022/08/06 02:50:36;;;;;;;5.70;5.20;;;21.50;76.70;;;21.93;54.14;94778.56;5017363;28;20456;-58
2022/08/06 02:53:06;;;;;;;6.20;5.60;;;21.40;76.80;;;21.88;54.02;94773.06;5023908;28;20722;-60
2022/08/06 02:55:35;;;;;;;9.67;5.97;;;21.40;77.00;;;21.85;54.15;94771.59;5017861;28;20481;-58
2022/08/06 02:58:08;;;;;;;5.30;4.43;;;21.40;77.30;;;21.84;54.18;94786.06;5017053;28;20485;-59
2022/08/06 03:00:38;;;;;;;5.43;4.97;;;21.30;77.30;;;21.80;54.27;94781.34;5018607;28;20477;-58
2022/08/06 03:03:05;;;;;;;5.80;5.30;;;21.30;77.50;;;21.78;54.19;94781.53;5019702;28;20487;-58
2022/08/06 03:05:34;;;;;;;13.77;6.40;;;21.30;77.50;;;21.76;54.34;94780.91;5021244;28;20489;-60
2022/08/06 03:08:01;;;;;;;7.83;5.50;;;21.20;77.90;;;21.70;54.53;94784.44;5021055;28;20846;-59
2022/08/06 03:10:28;;;;;;;6.30;5.70;;;21.20;77.70;;;21.63;54.24;94786.31;5017109;28;20974;-59
2022/08/06 03:12:55;;;;;;;7.87;6.30;;;21.10;77.80;;;21.57;55.03;94785.31;5021593;28;20478;-58
2022/08/06 03:15:23;;;;;;;12.10;5.20;;;21.10;78.20;;;21.55;54.83;94789.22;5024491;28;20918;-59
2022/08/06 03:17:50;;;;;;;5.40;4.90;;;21.10;78.50;;;21.53;54.96;94781.41;5016202;28;20516;-57
2022/08/06 03:20:20;;;;;;;5.43;4.90;;;21.00;78.70;;;21.52;55.01;94790.47;5020367;28;20528;-60
2022/08/06 03:22:51;;;;;;;8.30;5.70;;;21.00;78.90;;;21.48;55.52;94784.66;5017016;28;20484;-57
2022/08/06 03:25:18;;;;;;;11.63;5.33;;;21.00;79.30;;;21.48;55.36;94787.34;5021582;28;20461;-58
2022/08/06 03:27:46;;;;;;;5.60;5.20;;;21.00;79.70;;;21.47;55.06;94790.22;5021789;28;20550;-60
2022/08/06 03:30:14;;;;;;;13.33;4.93;;;21.00;79.80;;;21.48;54.83;94789.22;5019672;28;20465;-59
2022/08/06 03:32:41;;;;;;;9.90;5.70;;;21.00;79.60;;;21.47;55.06;94787.56;5020267;28;21078;-58
2022/08/06 03:35:09;;;;;;;6.37;5.67;;;21.00;79.60;;;21.47;55.04;94790.22;5020611;28;20456;-59
2022/08/06 03:37:37;;;;;;;7.23;5.60;;;21.00;79.60;;;21.46;55.32;94780.56;5016809;28;20474;-59
2022/08/06 03:40:07;;;;;;;10.43;5.60;;;20.90;79.90;;;21.46;55.24;94784.06;5020962;28;20461;-60
2022/08/06 03:42:34;;;;;;;8.73;5.87;;;20.90;80.20;;;21.42;55.28;94790.03;5022445;28;20584;-59
2022/08/06 03:45:01;;;;;;;6.30;5.70;;;20.90;80.10;;;21.43;55.40;94792.50;5021565;28;20452;-59
2022/08/06 03:47:33;;;;;;;5.27;4.97;;;20.90;80.50;;;21.42;55.61;94790.84;5018012;28;20481;-60
2022/08/06 03:50:05;;;;;;;8.20;5.57;;;20.90;80.80;;;21.42;55.69;94790.84;5017463;28;20476;-59
2022/08/06 03:52:34;;;;;;;9.63;5.67;;;20.90;80.90;;;21.43;55.77;94792.50;5020269;28;20473;-59
2022/08/06 03:55:05;;;;;;;20.20;7.23;;;20.90;81.50;;;21.44;55.56;94787.97;5018283;28;20500;-60
2022/08/06 03:57:36;;;;;;;15.00;6.10;;;20.90;81.10;;;21.42;55.40;94796.22;5017123;28;20470;-60
2022/08/06 04:00:05;;;;;;;7.00;5.83;;;20.90;80.80;;;21.41;55.40;94793.75;5016709;28;20522;-59
2022/08/06 04:02:40;;;;;;;14.43;6.13;;;20.90;80.80;;;21.42;55.73;94798.88;5017760;28;20481;-59
2022/08/06 04:05:09;;;;;;;18.43;6.20;;;20.90;81.60;;;21.42;55.89;94801.56;5015472;28;20534;-58
2022/08/06 04:07:36;;;;;;;12.57;6.27;;;20.90;81.90;;;21.45;55.91;94803.00;5019880;28;20496;-62
2022/08/06 04:10:05;;;;;;;14.20;6.00;;;20.90;82.00;;;21.48;55.93;94807.94;5022535;28;21074;-57
2022/08/06 04:12:32;;;;;;;28.53;7.83;;;20.90;82.20;;;21.51;55.88;94812.91;5023195;28;20868;-60
2022/08/06 04:14:59;;;;;;;15.20;5.83;;;21.00;82.70;;;21.54;56.04;94809.00;5020875;28;20457;-61
2022/08/06 04:17:28;;;;;;;8.13;5.93;;;21.00;82.90;;;21.57;56.16;94809.41;5023866;28;20885;-58
2022/08/06 04:19:55;;;;;;;11.00;7.30;;;21.10;83.10;;;21.62;56.21;94811.44;5022875;28;20556;-58
2022/08/06 04:22:23;;;;;;;10.13;5.37;;;21.10;83.30;;;21.65;56.11;94813.69;5021547;28;20473;-60
2022/08/06 04:24:50;;;;;;;25.03;6.43;;;21.10;83.40;;;21.68;56.26;94807.94;5023916;28;20453;-58
2022/08/06 04:27:18;;;;;;;8.90;5.67;;;21.10;83.40;;;21.70;56.24;94811.19;5024247;28;20480;-59
2022/08/06 04:29:46;;;;;;;7.30;5.70;;;21.20;83.50;;;21.73;56.17;94813.47;5023920;28;20474;-59
2022/08/06 04:32:13;;;;;;;8.40;6.10;;;21.20;83.50;;;21.75;56.21;94819.44;5019061;28;20468;-60
2022/08/06 04:34:41;;;;;;;7.70;6.03;;;21.20;83.60;;;21.77;56.34;94824.59;5019627;28;20465;-58
2022/08/06 04:37:08;;;;;;;6.87;6.10;;;21.30;83.80;;;21.81;56.31;94820.44;5021755;28;20547;-59
2022/08/06 04:39:35;;;;;;;11.90;7.73;;;21.30;84.00;;;21.85;56.24;94822.47;5023162;28;21031;-60
2022/08/06 04:42:03;;;;;;;9.73;6.90;;;21.30;84.30;;;21.92;55.80;94824.31;5025045;28;20516;-60
2022/08/06 04:44:31;;;;;;;11.93;7.47;;;21.40;84.20;;;21.98;56.08;94832.34;5026270;28;20977;-59
2022/08/06 04:47:02;;;;;;;9.03;7.03;;;21.40;83.90;;;22.05;55.95;94835.00;5026949;28;20539;-60
2022/08/06 04:49:29;;;;;;;9.23;6.30;;;21.50;83.60;;;22.10;55.58;94840.53;5021383;28;20523;-59
2022/08/06 04:51:57;;;;;;;9.73;6.50;;;21.60;83.60;;;22.17;55.33;94841.31;5026712;28;20465;-60
2022/08/06 04:54:24;;;;;;;10.73;7.37;;;21.60;83.50;;;22.25;55.37;94840.25;5025729;28;20460;-59
2022/08/06 04:56:51;;;;;;;17.80;8.10;;;21.70;83.30;;;22.33;55.08;94839.22;5023549;28;20519;-58
2022/08/06 04:59:18;;;;;;;9.60;7.47;;;21.80;83.00;;;22.41;55.14;94838.97;5021468;28;20461;-59
2022/08/06 05:01:47;;;;;;;10.07;6.13;;;21.80;82.70;;;22.47;55.02;94845.34;5020438;28;20469;-58
2022/08/06 05:04:14;;;;;;;10.23;6.43;;;21.90;82.10;;;22.51;54.59;94844.69;5022498;28;20523;-59
2022/08/06 05:06:47;;;;;;;14.83;7.53;;;21.90;81.90;;;22.59;54.25;94843.63;5024211;28;21013;-60
2022/08/06 05:09:18;;;;;;;12.80;7.20;;;22.00;81.90;;;22.67;54.28;94847.91;5022978;28;20452;-61
2022/08/06 05:11:49;;;;;;;6.93;6.23;;;22.10;81.50;;;22.72;53.83;94842.72;5026269;28;20480;-59
2022/08/06 05:14:21;;;;;;;8.57;5.70;;;22.20;81.10;;;22.78;53.83;94846.41;5021340;28;20662;-59
2022/08/06 05:16:50;;;;;;;17.00;6.23;;;22.20;80.80;;;22.83;53.63;94844.69;5018553;28;20554;-60
2022/08/06 05:19:20;;;;;;;6.73;6.00;;;22.30;80.70;;;22.88;53.70;94838.69;5017666;28;20969;-59
2022/08/06 05:21:47;;;;;;;14.33;6.13;;;22.30;80.40;;;22.90;53.67;94842.78;5022541;28;21016;-61
2022/08/06 05:24:15;;;;;;;7.80;6.60;;;22.30;80.10;;;22.91;53.92;94840.94;5020912;28;21021;-60
2022/08/06 05:26:42;;;;;;;13.43;6.50;;;22.40;80.30;;;22.96;53.45;94837.59;5026794;28;20550;-59
2022/08/06 05:29:10;;;;;;;15.60;6.90;;;22.40;80.20;;;23.03;53.30;94835.69;5022064;28;20959;-59
2022/08/06 05:31:39;;;;;;;9.80;6.50;;;22.50;80.10;;;23.11;53.45;94846.19;5022087;28;20496;-59
2022/08/06 05:34:11;;;;;;;19.43;6.40;;;22.50;79.70;;;23.21;53.13;94846.50;5020029;28;20473;-59
2022/08/06 05:36:38;;;;;;;7.07;6.40;;;22.60;79.80;;;23.33;52.67;94843.09;5022598;28;20501;-60
2022/08/06 05:39:06;;;;;;;7.17;6.30;;;22.70;79.30;;;23.45;53.15;94838.66;5016658;28;20552;-60
2022/08/06 05:41:34;;;;;;;7.73;6.00;;;22.80;79.00;;;23.59;52.42;94850.09;5021826;28;20476;-59
2022/08/06 05:44:02;;;;;;;10.63;6.30;;;22.90;78.30;;;23.74;52.13;94847.06;5022365;28;20463;-60
2022/08/06 05:46:34;;;;;;;9.60;7.03;;;23.10;77.20;;;23.88;51.07;94848.59;5020331;28;20563;-60
2022/08/06 05:49:08;;;;;;;32.60;7.07;;;23.20;76.70;;;24.01;51.25;94846.81;5023185;28;20449;-61
2022/08/06 05:51:39;;;;;;;11.90;6.20;;;23.30;75.70;;;24.17;51.19;94848.91;5021261;28;20547;-60
2022/08/06 05:54:12;;;;;;;11.20;6.23;;;23.40;75.60;;;24.39;50.12;94849.22;5025705;28;20459;-61
2022/08/06 05:56:42;;;;;;;11.80;5.67;;;23.60;75.20;;;24.61;49.81;94848.78;5021295;28;20496;-59
2022/08/06 05:59:13;;;;;;;6.10;5.47;;;23.80;74.60;;;24.80;49.47;94836.06;5021920;28;20518;-59
2022/08/06 06:01:40;;;;;;;9.30;5.70;;;24.00;73.30;;;25.01;49.32;94838.25;5018429;28;20547;-59
2022/08/06 06:04:09;;;;;;;6.47;5.83;;;24.20;72.90;;;25.18;49.29;94841.06;5017745;28;20909;-60
2022/08/06 06:06:36;;;;;;;5.27;4.93;;;24.40;72.20;;;25.35;48.67;94843.13;5021325;28;20472;-58
2022/08/06 06:09:03;;;;;;;11.90;5.57;;;24.60;71.50;;;25.53;48.35;94842.19;5019488;28;20457;-60
2022/08/06 06:11:31;;;;;;;8.60;5.40;;;24.80;71.20;;;25.70;47.63;94835.06;5018477;28;21187;-59
2022/08/06 06:13:58;;;;;;;6.97;6.40;;;24.90;70.50;;;25.85;47.15;94837.25;5015499;28;20466;-63
2022/08/06 06:16:28;;;;;;;10.63;6.10;;;25.10;69.40;;;26.00;47.02;94836.00;5020202;28;20488;-59
2022/08/06 06:19:08;;;;;;;9.13;5.17;;;25.20;69.00;;;26.15;46.99;94832.78;5019613;28;20822;-60
2022/08/06 06:21:43;;;;;;;6.90;5.27;;;25.40;68.40;;;26.32;46.37;94831.00;5022577;28;20490;-60
2022/08/06 06:24:22;;;;;;;20.90;5.43;;;25.50;67.60;;;26.50;46.02;94834.56;5020988;28;20479;-59
2022/08/06 06:26:53;;;;;;;7.77;5.23;;;25.70;67.00;;;26.63;46.06;94831.53;5023843;28;20575;-60
2022/08/06 06:29:37;;;;;;;15.40;6.67;;;25.80;65.90;;;26.79;44.96;94835.41;5022917;28;20876;-61
2022/08/06 06:32:09;;;;;;;12.47;7.33;;;26.00;65.80;;;26.96;45.66;94830.03;5014895;28;20476;-58
2022/08/06 06:34:49;;;;;;;7.33;6.10;;;26.10;65.40;;;27.15;45.20;94828.72;5023245;28;20456;-62
2022/08/06 06:37:27;;;;;;;25.07;6.37;;;26.40;65.20;;;27.35;44.87;94824.75;5021496;28;20558;-60
2022/08/06 06:40:06;;;;;;;9.83;6.00;;;26.60;64.70;;;27.50;44.40;94830.38;5016240;28;20506;-59
2022/08/06 06:42:39;;;;;;;7.37;6.00;;;26.70;63.80;;;27.61;44.27;94822.44;5020825;28;20537;-59
2022/08/06 06:45:10;;;;;;;7.93;5.37;;;26.80;63.20;;;27.72;44.02;94822.31;5023068;28;20441;-60
2022/08/06 06:47:45;;;;;;;5.67;5.07;;;26.90;63.00;;;27.88;43.82;94825.25;5020926;28;20476;-60
2022/08/06 06:50:17;;;;;;;5.43;4.90;;;27.10;62.70;;;28.05;43.29;94820.63;5019121;28;20535;-59
2022/08/06 06:52:48;;;;;;;6.90;5.00;;;27.20;61.50;;;28.25;42.99;94816.56;5023986;28;20467;-59
2022/08/06 06:55:19;;;;;;;16.57;5.80;;;27.50;61.10;;;28.44;42.98;94817.88;5019849;28;21013;-60
2022/08/06 06:57:51;;;;;;;24.43;5.80;;;27.60;60.40;;;28.61;42.83;94815.09;5018759;28;20565;-60
2022/08/06 07:00:18;;;;;;;7.77;4.90;;;27.80;60.40;;;28.71;42.04;94813.59;5021224;28;20535;-59
2022/08/06 07:02:48;;;;;;;8.43;5.73;;;27.90;59.30;;;28.73;41.97;94809.53;5020076;28;20556;-58
2022/08/06 07:05:15;;;;;;;5.50;4.67;;;28.00;59.00;;;28.81;41.54;94804.75;5018562;28;20529;-63
2022/08/06 07:07:45;;;;;;;4.83;4.43;;;28.00;58.70;;;28.95;41.16;94814.91;5022286;28;20615;-59
2022/08/06 07:10:13;;;;;;;7.40;4.50;;;28.10;58.50;;;29.14;41.38;94809.06;5015469;28;21021;-60
2022/08/06 07:12:43;;;;;;;7.20;5.13;;;28.30;58.00;;;29.34;41.42;94811.16;5020329;28;20969;-58
2022/08/06 07:15:10;;;;;;;7.50;5.73;;;28.50;57.80;;;29.54;40.50;94809.69;5016278;28;20453;-60
2022/08/06 07:17:38;;;;;;;12.70;6.83;;;28.70;57.40;;;29.71;40.82;94801.41;5018704;28;21031;-59
2022/08/06 07:20:08;;;;;;;6.10;5.60;;;28.90;57.00;;;29.91;40.72;94804.25;5021567;28;20850;-60
2022/08/06 07:22:36;;;;;;;9.90;5.30;;;29.00;56.60;;;30.10;39.53;94803.78;5024562;28;21016;-59
2022/08/06 07:25:07;;;;;;;5.40;4.73;;;29.20;56.00;;;30.31;39.57;94796.56;5019684;28;21035;-60
2022/08/06 07:27:38;;;;;;;5.23;4.73;;;29.50;56.20;;;30.52;39.51;94800.16;5018772;28;20551;-60
2022/08/06 07:30:06;;;;;;;7.50;4.40;;;29.70;56.10;;;30.73;38.96;94798.34;5021452;28;20510;-59
2022/08/06 07:32:34;;;;;;;8.93;5.40;;;29.90;55.40;;;30.91;39.20;94797.00;5020719;28;20538;-60
2022/08/06 07:35:01;;;;;;;4.90;4.53;;;30.10;55.00;;;31.10;38.30;94791.88;5018374;28;20456;-58
2022/08/06 07:37:28;;;;;;;7.53;5.00;;;30.20;54.40;;;31.28;38.15;94794.06;5017771;28;20234;-59
2022/08/06 07:39:56;;;;;;;9.63;4.97;;;30.40;54.10;;;31.46;38.26;94784.53;5020731;28;20189;-60
2022/08/06 07:42:24;;;;;;;19.37;4.97;;;30.60;53.50;;;31.64;38.04;94774.19;5015173;28;20671;-59
2022/08/06 07:44:53;;;;;;;5.00;4.60;;;30.80;53.40;;;31.87;37.75;94782.84;5017364;28;20202;-64
2022/08/06 07:47:23;;;;;;;7.33;4.17;;;31.00;52.90;;;32.07;37.46;94774.63;5016770;28;20287;-59
2022/08/06 07:49:54;;;;;;;38.27;8.60;;;31.20;52.40;;;32.31;37.17;94774.00;5021760;28;20202;-58
2022/08/06 07:52:21;;;;;;;13.00;6.40;;;31.40;52.30;;;32.61;37.04;94780.38;5023030;28;20217;-61
2022/08/06 07:54:49;;;;;;;9.93;5.53;;;31.70;51.90;;;32.91;36.87;94775.88;5016237;28;20257;-58
2022/08/06 07:57:16;;;;;;;52.83;13.83;;;32.00;51.90;;;33.20;36.42;94784.94;5023646;28;20294;-59
2022/08/06 07:59:45;;;;;;;39.27;14.30;;;32.30;51.50;;;33.52;35.96;94775.38;5015054;28;20210;-59
2022/08/06 08:02:12;;;;;;;9.52;5.90;;;32.60;51.00;;;33.81;35.93;94779.22;5018326;28;20229;-61
2022/08/06 08:07:24;;;;;;;46.25;10.23;;;33.10;49.80;;;34.44;35.53;94778.22;5016986;28;20667;-61
2022/08/06 08:09:52;;;;;;;7.78;5.93;;;33.50;49.60;;;34.74;34.06;94770.72;5020594;28;20208;-60
2022/08/06 08:12:19;;;;;;;16.02;5.35;;;33.80;48.80;;;34.90;34.02;94777.59;5018905;28;20709;-60
2022/08/06 08:14:49;;;;;;;7.85;5.00;;;34.00;48.40;;;35.01;33.56;94770.88;5017137;28;20205;-58
2022/08/06 08:17:17;;;;;;;4.60;4.30;;;34.20;47.80;;;35.19;34.48;94776.59;5016483;28;20256;-60
2022/08/06 08:19:45;;;;;;;4.97;4.50;;;34.40;47.90;;;35.40;33.21;94768.09;5019882;28;20273;-60
2022/08/06 08:22:14;;;;;;;5.75;5.00;;;34.50;47.30;;;35.54;33.44;94766.22;5022600;28;20217;-60
2022/08/06 08:24:42;;;;;;;6.35;3.95;;;34.70;46.80;;;35.63;33.30;94766.31;5019430;28;20267;-60
2022/08/06 08:27:10;;;;;;;6.25;4.53;;;34.70;46.20;;;35.73;32.15;94774.34;5018937;28;20230;-60
2022/08/06 08:29:37;;;;;;;9.20;4.35;;;34.90;45.50;;;35.78;32.63;94765.25;5020252;28;20198;-58
2022/08/06 08:32:08;;;;;;;7.90;3.67;;;35.00;45.40;;;35.84;32.22;94772.25;5018362;28;20240;-59
2022/08/06 08:34:35;;;;;;;7.50;4.68;;;34.90;44.80;;;35.89;31.82;94767.47;5017798;28;20251;-60
2022/08/06 08:37:03;;;;;;;7.25;3.90;;;35.10;44.60;;;36.03;31.45;94772.97;5019813;28;20233;-58
2022/08/06 08:39:31;;;;;;;5.38;3.42;;;35.20;44.60;;;36.11;31.50;94765.16;5020370;28;20260;-60
2022/08/06 08:42:06;;;;;;;4.15;3.88;;;35.20;43.70;;;36.13;31.38;94766.50;5018463;28;20218;-58
2022/08/06 08:44:34;;;;;;;6.32;3.97;;;35.20;43.60;;;36.28;31.04;94759.09;5015855;28;20240;-60
2022/08/06 08:47:02;;;;;;;8.15;3.72;;;35.30;43.30;;;36.46;31.37;94760.09;5020047;28;20272;-60
2022/08/06 08:49:39;;;;;;;14.88;3.65;;;35.50;43.40;;;36.76;30.32;94759.44;5014901;28;20591;-59
2022/08/06 08:52:09;;;;;;;6.85;3.88;;;35.70;42.90;;;37.09;30.14;94763.88;5017666;28;20237;-58
2022/08/06 08:54:37;;;;;;;8.73;4.13;;;36.00;43.00;;;37.42;30.11;94760.91;5017276;28;20209;-58
2022/08/06 08:57:05;;;;;;;12.93;3.78;;;36.30;42.50;;;37.65;29.84;94758.94;5016862;28;20241;-59
2022/08/06 08:59:32;;;;;;;8.77;3.28;;;36.70;41.60;;;37.75;29.50;94761.44;5020185;28;20267;-59
2022/08/06 09:02:00;;;;;;;3.65;3.20;;;36.80;41.30;;;37.83;29.38;94755.19;5017191;28;20237;-60
2022/08/06 09:04:27;;;;;;;7.32;3.55;;;36.90;40.80;;;37.88;28.89;94756.16;5021975;28;20208;-60
2022/08/06 09:06:56;;;;;;;4.07;3.40;;;36.90;40.50;;;37.91;28.53;94761.84;5022055;28;20218;-59
2022/08/06 09:09:24;;;;;;;3.70;3.40;;;37.00;39.80;;;37.93;28.60;94758.78;5019141;28;20205;-60
2022/08/06 09:11:51;;;;;;;5.93;3.55;;;37.10;39.80;;;37.83;27.99;94755.19;5019747;28;20222;-59
2022/08/06 09:14:18;;;;;;;3.72;3.42;;;37.00;39.30;;;37.65;28.08;94753.47;5018689;28;20201;-59
2022/08/06 09:16:45;;;;;;;5.22;3.33;;;36.80;38.90;;;37.48;28.03;94754.19;5020718;28;20218;-60
2022/08/06 09:19:13;;;;;;;3.22;2.95;;;36.70;39.10;;;37.26;28.16;94755.00;5020208;28;20201;-60
2022/08/06 09:21:40;;;;;;;3.92;3.17;;;36.50;38.60;;;36.95;28.90;94750.22;5021814;28;20226;-57
2022/08/06 09:24:09;;;;;;;6.80;3.58;;;36.30;39.20;;;36.77;28.59;94747.34;5022377;28;20198;-60
2022/08/06 09:26:36;;;;;;;7.90;4.03;;;36.10;39.70;;;36.74;29.07;94744.41;5023288;28;20237;-59
2022/08/06 09:29:04;;;;;;;4.13;3.72;;;35.90;40.40;;;36.75;29.00;94744.13;5019482;28;20206;-58
2022/08/06 09:31:31;;;;;;;12.93;3.80;;;35.90;40.00;;;36.72;28.41;94743.91;5023678;28;20225;-60
2022/08/06 09:34:00;;;;;;;4.00;3.70;;;35.90;39.80;;;36.62;29.09;94739.44;5021265;28;20584;-59
2022/08/06 09:36:28;;;;;;;6.07;4.03;;;35.80;39.80;;;36.48;28.91;94744.94;5016729;28;20222;-60
2022/08/06 09:38:57;;;;;;;3.65;3.42;;;35.60;39.80;;;36.35;28.76;94741.13;5019316;28;20669;-60
2022/08/06 09:41:27;;;;;;;4.18;3.67;;;35.50;39.90;;;36.23;28.80;94738.88;5022500;28;20296;-60
2022/08/06 09:43:56;;;;;;;6.15;3.67;;;35.40;39.90;;;36.06;28.73;94742.22;5019459;28;20764;-59
2022/08/06 09:46:38;;;;;;;4.22;3.90;;;35.20;40.00;;;35.86;28.81;94740.72;5024556;28;20221;-60
2022/08/06 09:49:05;;;;;;;5.45;3.67;;;35.10;39.90;;;35.65;28.71;94737.53;5025059;28;20259;-59
2022/08/06 09:51:34;;;;;;;4.85;4.53;;;34.90;39.90;;;35.48;30.13;94740.06;5023516;28;20221;-59
2022/08/06 09:54:03;;;;;;;6.22;4.10;;;34.70;40.90;;;35.39;29.66;94731.72;5023565;28;20650;-60
2022/08/06 09:56:32;;;;;;;7.35;4.13;;;34.60;40.70;;;35.38;29.65;94734.75;5020046;28;20305;-58
2022/08/06 09:59:00;;;;;;;4.40;4.00;;;34.60;40.80;;;35.37;29.71;94731.22;5018020;28;20760;-60
2022/08/06 10:01:27;;;;;;;4.28;3.97;;;34.50;40.90;;;35.30;30.00;94731.59;5020814;28;20225;-59
2022/08/06 10:03:56;;;;;;;6.57;4.03;;;34.50;40.60;;;35.26;29.43;94736.06;5024664;28;20579;-60
2022/08/06 10:06:25;;;;;;;7.70;4.38;;;34.40;40.60;;;35.25;29.95;94726.19;5022938;28;20217;-59
2022/08/06 10:09:06;;;;;;;4.32;3.63;;;34.40;40.40;;;35.20;29.65;94731.75;5018705;28;20277;-60
2022/08/06 10:11:36;;;;;;;4.40;4.20;;;34.40;40.50;;;35.17;30.35;94732.34;5024371;28;20217;-60
2022/08/06 10:14:04;;;;;;;3.60;3.40;;;34.40;40.80;;;35.11;29.94;94722.63;5023620;28;20302;-58
2022/08/06 10:16:31;;;;;;;8.77;3.72;;;34.30;40.80;;;35.05;30.29;94724.63;5019311;28;20222;-59
2022/08/06 10:19:00;;;;;;;3.75;3.55;;;34.20;40.90;;;34.98;29.69;94727.75;5024121;28;20505;-61
2022/08/06 10:21:29;;;;;;;10.38;4.10;;;34.20;40.50;;;34.92;30.17;94720.72;5022854;28;20698;-58
2022/08/06 10:23:59;;;;;;;5.65;4.43;;;34.10;41.20;;;34.89;30.16;94715.84;5022796;28;20208;-59
2022/08/06 10:26:29;;;;;;;3.30;3.10;;;34.10;41.60;;;34.81;29.57;94721.97;5017757;28;20226;-58
2022/08/06 10:29:03;;;;;;;9.32;4.75;;;34.00;40.90;;;34.58;30.48;94712.72;5022613;28;20251;-60